createdAt,value
2022-11-22T08:08:19.062Z,70.95
2022-11-22T08:18:25.387Z,57.48
2022-11-22T08:28:32.095Z,52.50
2022-11-22T08:38:38.879Z,38.35
2022-11-22T08:48:45.491Z,30.88
2022-11-22T08:58:51.893Z,31.87
2022-11-22T09:09:22.182Z,27.32
2022-11-22T09:19:07.049Z,32.08
2022-11-22T09:29:14.202Z,26.07
2022-11-22T09:39:20.418Z,20.65
2022-11-22T09:49:32.848Z,20.27
2022-11-22T10:09:58.024Z,19.57
2022-11-22T10:20:07.917Z,20.73
2022-11-22T10:30:19.886Z,18.55
2022-11-22T10:40:29.465Z,15.80
2022-11-22T10:50:40.414Z,16.57
2022-11-22T11:21:09.582Z,14.60
2022-11-22T11:31:18.056Z,17.50
2022-11-22T11:41:27.603Z,14.63
2022-11-22T11:51:39.253Z,16.85
2022-11-22T12:01:53.566Z,17.05
2022-11-22T12:12:16.172Z,17.42
2022-11-22T12:42:54.055Z,14.50
2022-11-22T12:48:23.629Z,15.67
2022-11-22T12:53:04.451Z,16.33
2022-11-22T13:03:14.573Z,13.70
2022-11-22T13:13:24.794Z,18.13
2022-11-22T13:23:41.885Z,15.87
2022-11-22T13:33:58.293Z,15.50
2022-11-22T13:44:28.232Z,14.43
2022-11-22T13:55:05.075Z,12.37
2022-11-22T14:05:20.781Z,15.25
2022-11-22T14:15:43.683Z,14.65
2022-11-22T14:26:08.721Z,14.73
2022-11-22T14:36:18.169Z,15.35
2022-11-22T14:46:51.754Z,14.45
2022-11-22T14:56:36.183Z,13.27
2022-11-22T15:57:54.979Z,26.20
2022-11-22T16:08:03.554Z,21.65
2022-11-22T16:18:15.647Z,26.27
2022-11-22T16:28:30.778Z,29.77
2022-11-22T16:38:37.317Z,24.35
2022-11-22T16:48:44.824Z,25.88
2022-11-22T16:58:53.144Z,21.70
2022-11-22T17:09:01.433Z,22.60
2022-11-22T17:19:14.574Z,24.12
2022-11-22T17:29:43.302Z,21.65
2022-11-22T17:39:26.294Z,19.98
2022-11-22T17:49:33.095Z,20.43
2022-11-22T17:59:40.990Z,19.82
2022-11-22T18:09:48.811Z,21.07
2022-11-22T18:19:54.978Z,23.10
2022-11-22T18:30:01.192Z,22.65
2022-11-22T18:40:10.507Z,28.47
2022-11-22T18:50:17.854Z,32.35
2022-11-22T19:00:24.709Z,45.78
2022-11-22T19:10:33.222Z,42.43
2022-11-22T19:20:54.525Z,39.55
